createdAt,value
2023-01-25T00:01:08.159Z,-4.86
2023-01-25T00:03:35.646Z,-4.93
2023-01-25T00:06:03.328Z,-4.83
2023-01-25T00:08:31.002Z,-4.72
2023-01-25T00:10:58.837Z,-4.66
2023-01-25T00:13:27.088Z,-4.86
2023-01-25T00:15:54.593Z,-4.95
2023-01-25T00:18:22.045Z,-5.05
2023-01-25T00:20:49.508Z,-5.07
2023-01-25T00:23:16.880Z,-4.90
2023-01-25T00:25:44.378Z,-5.01
2023-01-25T00:28:11.739Z,-5.12
2023-01-25T00:30:39.351Z,-5.07
2023-01-25T00:33:20.729Z,-4.92
2023-01-25T00:35:49.621Z,-4.90
2023-01-25T00:38:38.603Z,-5.13
2023-01-25T00:41:06.099Z,-5.25
2023-01-25T00:43:34.547Z,-5.36
2023-01-25T00:46:02.635Z,-5.32
2023-01-25T00:48:30.697Z,-5.37
2023-01-25T00:51:07.709Z,-5.53
2023-01-25T00:53:35.824Z,-5.67
2023-01-25T00:56:04.279Z,-5.41
2023-01-25T00:58:31.765Z,-5.37
2023-01-25T01:00:59.334Z,-5.33
2023-01-25T01:03:27.185Z,-5.21
2023-01-25T01:06:07.075Z,-5.20
2023-01-25T01:08:37.073Z,-5.08
2023-01-25T01:11:06.873Z,-4.92
2023-01-25T01:13:35.164Z,-4.96
2023-01-25T01:16:05.280Z,-4.98
2023-01-25T01:18:38.532Z,-5.00
2023-01-25T01:21:06.643Z,-4.98
2023-01-25T01:23:34.910Z,-4.88
2023-01-25T01:26:04.342Z,-4.72
2023-01-25T01:28:33.311Z,-5.13
2023-01-25T01:31:05.661Z,-5.21
2023-01-25T01:33:36.614Z,-5.33
2023-01-25T01:36:11.071Z,-5.29
2023-01-25T01:38:38.432Z,-5.23
2023-01-25T01:41:06.198Z,-5.04
2023-01-25T01:43:34.368Z,-4.87
2023-01-25T01:46:05.044Z,-4.74
2023-01-25T01:48:48.764Z,-4.83
2023-01-25T01:51:44.019Z,-4.91
2023-01-25T01:54:48.779Z,-4.95
2023-01-25T01:57:18.190Z,-4.83
2023-01-25T01:59:53.934Z,-4.87
2023-01-25T02:05:14.874Z,-4.91
2023-01-25T02:07:42.577Z,-4.82
2023-01-25T02:10:12.806Z,-4.95
2023-01-25T02:12:43.940Z,-4.92
2023-01-25T02:15:12.109Z,-4.99
2023-01-25T02:17:40.485Z,-5.05
2023-01-25T02:20:35.978Z,-5.13
2023-01-25T02:23:27.928Z,-5.22
2023-01-25T02:25:59.065Z,-5.30
2023-01-25T02:28:41.880Z,-5.15
2023-01-25T02:31:09.650Z,-5.20
2023-01-25T02:33:37.373Z,-5.20
2023-01-25T02:36:07.545Z,-5.08
2023-01-25T02:38:43.549Z,-5.16
2023-01-25T02:41:17.648Z,-5.14
2023-01-25T02:43:45.297Z,-5.04
2023-01-25T02:46:32.152Z,-5.09
2023-01-25T02:49:01.229Z,-5.35
2023-01-25T02:51:33.310Z,-5.32
2023-01-25T02:54:02.549Z,-5.20
2023-01-25T02:56:30.270Z,-5.15
2023-01-25T02:58:57.917Z,-5.11
2023-01-25T03:01:25.878Z,-5.17
2023-01-25T03:03:53.927Z,-5.46
2023-01-25T03:06:21.469Z,-5.41
2023-01-25T03:08:49.183Z,-5.37
2023-01-25T03:11:16.830Z,-5.49
2023-01-25T03:13:45.007Z,-5.61
2023-01-25T03:16:14.232Z,-5.41
2023-01-25T03:18:45.066Z,-5.30
2023-01-25T03:21:15.825Z,-5.38
2023-01-25T03:23:44.393Z,-5.75
2023-01-25T03:26:20.084Z,-5.53
2023-01-25T03:29:11.062Z,-5.19
2023-01-25T03:31:41.511Z,-5.30
2023-01-25T03:34:09.033Z,-5.30
2023-01-25T03:36:40.219Z,-5.32
2023-01-25T03:39:08.804Z,-5.27
2023-01-25T03:41:40.566Z,-5.54
2023-01-25T03:46:54.801Z,-5.45
2023-01-25T03:49:22.885Z,-5.26
2023-01-25T03:51:51.953Z,-5.16
2023-01-25T03:54:24.361Z,-5.16
2023-01-25T03:56:52.184Z,-5.16
2023-01-25T03:59:29.389Z,-5.24
2023-01-25T04:01:57.082Z,-5.22
2023-01-25T04:04:24.483Z,-5.18
2023-01-25T04:06:52.272Z,-5.21
2023-01-25T04:09:22.571Z,-5.24
2023-01-25T04:11:55.123Z,-5.19
2023-01-25T04:14:32.070Z,-5.35
2023-01-25T04:17:11.203Z,-5.24
2023-01-25T04:19:57.112Z,-5.51
2023-01-25T04:22:30.190Z,-5.59
2023-01-25T04:24:59.297Z,-5.84
2023-01-25T04:27:26.817Z,-6.03
2023-01-25T04:30:00.812Z,-5.93
2023-01-25T04:32:30.122Z,-5.69
2023-01-25T04:34:59.465Z,-5.86
2023-01-25T04:37:30.574Z,-5.89
2023-01-25T04:40:00.301Z,-5.76
2023-01-25T04:42:32.237Z,-5.70
2023-01-25T04:44:59.812Z,-5.79
2023-01-25T04:47:27.821Z,-5.72
2023-01-25T04:50:01.030Z,-5.86
2023-01-25T04:52:31.699Z,-6.21
2023-01-25T04:54:59.144Z,-5.92
2023-01-25T04:57:26.759Z,-5.95
2023-01-25T04:59:54.268Z,-6.00
2023-01-25T05:02:36.986Z,-5.96
2023-01-25T05:05:10.696Z,-5.82
2023-01-25T05:07:41.648Z,-5.88
2023-01-25T05:10:12.035Z,-5.80
2023-01-25T05:12:51.871Z,-5.56
2023-01-25T05:15:20.930Z,-5.58
2023-01-25T05:17:50.810Z,-5.41
2023-01-25T05:20:25.658Z,-5.57
2023-01-25T05:22:58.943Z,-5.27
2023-01-25T05:25:50.278Z,-5.14
2023-01-25T05:28:26.394Z,-5.11
2023-01-25T05:31:31.220Z,-5.10
2023-01-25T05:34:01.123Z,-5.05
2023-01-25T05:36:30.601Z,-4.91
2023-01-25T05:39:00.604Z,-4.96
2023-01-25T05:41:36.139Z,-4.97
2023-01-25T05:44:13.306Z,-4.73
2023-01-25T05:46:52.972Z,-4.62
2023-01-25T05:49:21.093Z,-4.56
2023-01-25T05:51:50.757Z,-4.71
2023-01-25T05:54:21.553Z,-4.59
2023-01-25T05:56:58.955Z,-4.26
2023-01-25T05:59:27.151Z,-4.20
2023-01-25T06:01:55.714Z,-4.21
2023-01-25T06:04:26.898Z,-4.21
2023-01-25T06:06:56.162Z,-4.07
2023-01-25T06:09:24.126Z,-4.00
2023-01-25T06:11:52.361Z,-4.00
2023-01-25T06:14:23.650Z,-4.03
2023-01-25T06:16:52.346Z,-3.93
2023-01-25T06:19:38.452Z,-3.79
2023-01-25T06:22:25.527Z,-3.81
2023-01-25T06:24:54.813Z,-3.83
2023-01-25T06:27:23.956Z,-3.72
2023-01-25T06:30:49.908Z,-3.66
2023-01-25T06:33:18.791Z,-3.94
2023-01-25T06:35:47.023Z,-3.75
2023-01-25T06:38:14.805Z,-3.70
2023-01-25T06:40:42.855Z,-3.64
2023-01-25T06:43:13.081Z,-3.48
2023-01-25T06:45:41.116Z,-3.22
2023-01-25T06:48:09.273Z,-3.18
2023-01-25T06:50:36.896Z,-2.90
2023-01-25T06:53:05.653Z,-2.97
2023-01-25T06:55:33.382Z,-2.96
2023-01-25T06:58:02.065Z,-2.81
2023-01-25T07:00:29.626Z,-2.63
2023-01-25T07:02:57.435Z,-2.60
2023-01-25T07:05:25.359Z,-2.37
2023-01-25T07:07:53.327Z,-2.02
2023-01-25T07:10:21.214Z,-1.96
2023-01-25T07:12:49.033Z,-2.05
2023-01-25T07:15:17.024Z,-1.99
2023-01-25T07:17:44.851Z,-1.65
2023-01-25T07:20:13.064Z,-1.75
2023-01-25T07:22:41.470Z,-1.45
2023-01-25T07:25:14.485Z,-1.37
2023-01-25T07:27:45.130Z,-1.17
2023-01-25T07:30:17.342Z,-1.12
2023-01-25T07:32:47.030Z,-1.07
2023-01-25T07:35:43.450Z,-0.91
2023-01-25T07:38:34.215Z,-0.84
2023-01-25T07:41:19.171Z,-0.76
2023-01-25T07:43:47.637Z,-0.78
2023-01-25T07:46:24.556Z,-0.78
2023-01-25T07:48:53.957Z,-0.73
2023-01-25T07:51:24.714Z,-0.63
2023-01-25T07:53:57.480Z,-0.46
2023-01-25T07:56:32.502Z,-0.30
2023-01-25T07:59:04.906Z,-0.27
2023-01-25T08:01:34.776Z,-0.17
2023-01-25T08:04:05.106Z,-0.18
2023-01-25T08:06:39.613Z,-0.07
2023-01-25T08:09:23.013Z,-0.08
2023-01-25T08:11:58.750Z,0.03
2023-01-25T08:14:29.290Z,0.10
2023-01-25T08:16:58.608Z,0.12
2023-01-25T08:19:28.029Z,0.15
2023-01-25T08:21:57.421Z,0.18
2023-01-25T08:24:25.754Z,0.20
2023-01-25T08:27:01.510Z,0.50
2023-01-25T08:29:32.718Z,0.64
2023-01-25T08:32:06.338Z,0.46
2023-01-25T08:34:36.804Z,0.60
2023-01-25T08:37:06.011Z,0.65
2023-01-25T08:39:34.228Z,0.57
2023-01-25T08:42:02.455Z,0.86
2023-01-25T08:44:33.740Z,0.88
2023-01-25T08:47:01.462Z,0.85
2023-01-25T08:49:29.288Z,1.00
2023-01-25T08:51:57.418Z,1.03
2023-01-25T08:54:25.086Z,1.12
2023-01-25T08:56:52.815Z,1.14
2023-01-25T08:59:20.904Z,1.03
2023-01-25T09:01:48.647Z,0.91
2023-01-25T09:04:16.229Z,1.19
2023-01-25T09:06:44.095Z,1.18
2023-01-25T09:09:13.953Z,1.23
2023-01-25T09:11:43.489Z,1.36
2023-01-25T09:14:11.296Z,1.43
2023-01-25T09:16:40.706Z,1.51
2023-01-25T09:19:43.449Z,1.35
2023-01-25T09:22:22.133Z,1.45
2023-01-25T09:24:54.331Z,1.42
2023-01-25T09:27:28.915Z,1.43
2023-01-25T09:30:13.704Z,1.45
2023-01-25T09:32:53.496Z,1.69
2023-01-25T09:35:22.707Z,1.64
2023-01-25T09:37:53.029Z,1.66
2023-01-25T09:40:26.130Z,1.86
2023-01-25T09:43:05.895Z,2.12
2023-01-25T09:45:37.581Z,2.16
2023-01-25T09:48:34.533Z,2.41
2023-01-25T09:51:11.825Z,2.64
2023-01-25T09:53:54.536Z,2.59
2023-01-25T09:59:21.548Z,2.77
2023-01-25T10:02:20.740Z,2.69
2023-01-25T10:04:57.297Z,2.92
2023-01-25T10:08:01.009Z,2.84
2023-01-25T10:10:47.728Z,2.75
2023-01-25T10:13:56.610Z,2.91
2023-01-25T10:17:06.517Z,2.93
2023-01-25T10:19:45.212Z,2.95
2023-01-25T10:22:20.639Z,3.03
2023-01-25T10:25:21.239Z,2.85
2023-01-25T10:28:31.076Z,3.03
2023-01-25T10:31:26.344Z,3.19
2023-01-25T10:33:59.737Z,3.26
2023-01-25T10:36:32.403Z,3.32
2023-01-25T10:39:03.684Z,3.16
2023-01-25T10:41:48.052Z,3.04
2023-01-25T10:44:25.165Z,2.90
2023-01-25T10:46:59.914Z,2.87
2023-01-25T10:49:48.749Z,2.77
2023-01-25T10:52:30.948Z,2.93
2023-01-25T10:55:37.876Z,2.70
2023-01-25T10:59:03.349Z,2.68
2023-01-25T11:02:20.840Z,2.60
2023-01-25T11:04:51.981Z,2.63
2023-01-25T11:07:31.306Z,2.56
2023-01-25T11:09:59.365Z,2.48
2023-01-25T11:12:26.815Z,2.48
2023-01-25T11:14:54.486Z,2.45
2023-01-25T11:17:32.007Z,2.44
2023-01-25T11:20:20.248Z,2.43
2023-01-25T11:23:21.014Z,2.38
2023-01-25T11:26:22.535Z,2.59
2023-01-25T11:29:05.891Z,2.51
2023-01-25T11:31:34.159Z,2.43
2023-01-25T11:34:02.311Z,2.62
2023-01-25T11:36:48.391Z,2.72
2023-01-25T11:39:27.217Z,2.76
2023-01-25T11:41:54.747Z,2.77
2023-01-25T11:44:34.367Z,2.81
2023-01-25T11:47:37.268Z,2.85
2023-01-25T11:50:36.892Z,2.84
2023-01-25T11:53:17.791Z,2.88
2023-01-25T11:56:04.199Z,2.93
2023-01-25T11:58:41.257Z,2.81
2023-01-25T12:01:19.771Z,2.83
2023-01-25T12:04:13.726Z,2.89
2023-01-25T12:07:04.524Z,3.07
2023-01-25T12:09:50.275Z,3.06
2023-01-25T12:12:58.962Z,2.94
2023-01-25T12:15:26.851Z,2.78
2023-01-25T12:17:54.758Z,2.83
2023-01-25T12:20:41.608Z,2.52
2023-01-25T12:23:29.938Z,2.42
2023-01-25T12:26:16.564Z,2.70
2023-01-25T12:29:16.431Z,2.69
2023-01-25T12:32:07.497Z,2.54
2023-01-25T12:34:46.359Z,2.78
2023-01-25T12:37:17.250Z,2.90
2023-01-25T12:39:57.602Z,2.95
2023-01-25T12:42:32.922Z,2.84
2023-01-25T12:45:07.393Z,3.00
2023-01-25T12:47:41.714Z,2.79
2023-01-25T12:50:46.645Z,2.89
2023-01-25T12:53:37.752Z,2.97
2023-01-25T12:56:08.631Z,2.99
2023-01-25T12:59:02.223Z,3.04
2023-01-25T13:01:33.778Z,3.11
2023-01-25T13:04:20.076Z,3.09
2023-01-25T13:07:17.050Z,3.06
2023-01-25T13:10:13.247Z,2.80
2023-01-25T13:12:59.175Z,2.77
2023-01-25T13:15:46.722Z,2.89
2023-01-25T13:18:30.213Z,2.93
2023-01-25T13:21:09.702Z,2.89
2023-01-25T13:23:44.689Z,2.88
2023-01-25T13:26:21.782Z,2.79
2023-01-25T13:28:55.286Z,2.72
2023-01-25T13:31:53.064Z,2.70
2023-01-25T13:34:36.426Z,2.67
2023-01-25T13:37:33.252Z,2.58
2023-01-25T13:40:27.014Z,2.55
2023-01-25T13:43:17.627Z,2.28
2023-01-25T13:45:48.935Z,2.22
2023-01-25T13:48:26.083Z,2.18
2023-01-25T13:51:08.724Z,2.11
2023-01-25T13:53:40.341Z,2.09
2023-01-25T13:56:32.262Z,2.03
2023-01-25T13:59:00.766Z,2.04
2023-01-25T14:01:30.731Z,1.90
2023-01-25T14:04:02.397Z,1.93
2023-01-25T14:06:38.922Z,1.91
2023-01-25T14:09:27.377Z,1.79
2023-01-25T14:12:03.663Z,1.75
2023-01-25T14:14:33.673Z,1.71
2023-01-25T14:17:24.011Z,1.66
2023-01-25T14:19:55.420Z,1.50
2023-01-25T14:22:33.908Z,1.17
2023-01-25T14:25:15.800Z,1.23
2023-01-25T14:27:55.188Z,1.12
2023-01-25T14:30:34.056Z,0.96
2023-01-25T14:33:04.263Z,1.01
2023-01-25T14:35:54.146Z,0.97
2023-01-25T14:38:28.518Z,0.89
2023-01-25T14:41:28.194Z,0.69
2023-01-25T14:43:58.974Z,0.86
2023-01-25T14:46:29.611Z,0.93
2023-01-25T14:49:26.696Z,1.00
2023-01-25T14:51:57.393Z,1.03
2023-01-25T14:54:31.366Z,1.01
2023-01-25T14:57:24.936Z,0.77
2023-01-25T14:59:55.003Z,0.68
2023-01-25T15:02:33.434Z,0.69
2023-01-25T15:05:16.506Z,0.42
2023-01-25T15:07:46.644Z,0.41
2023-01-25T15:10:31.524Z,0.37
2023-01-25T15:13:15.246Z,0.44
2023-01-25T15:16:00.701Z,0.39
2023-01-25T15:18:47.024Z,0.34
2023-01-25T15:21:29.703Z,0.24
2023-01-25T15:23:59.777Z,0.28
2023-01-25T15:26:32.523Z,0.21
2023-01-25T15:29:02.541Z,0.17
2023-01-25T15:31:33.622Z,0.13
2023-01-25T15:34:01.993Z,0.10
2023-01-25T15:36:31.598Z,0.07
2023-01-25T15:38:59.486Z,0.16
2023-01-25T15:41:27.343Z,0.04
2023-01-25T15:43:55.158Z,-0.09
2023-01-25T15:46:25.818Z,-0.01
2023-01-25T15:48:53.742Z,-0.03
2023-01-25T15:51:21.584Z,-0.04
2023-01-25T15:53:49.703Z,-0.07
2023-01-25T15:56:29.226Z,-0.09
2023-01-25T15:59:01.854Z,-0.07
2023-01-25T16:01:30.339Z,-0.17
2023-01-25T16:03:59.850Z,-0.24
2023-01-25T16:06:44.053Z,-0.42
2023-01-25T16:09:22.099Z,-0.49
2023-01-25T16:11:57.894Z,-0.58
2023-01-25T16:14:30.525Z,-0.48
2023-01-25T16:17:02.742Z,-0.44
2023-01-25T16:19:30.339Z,-0.63
2023-01-25T16:21:57.898Z,-0.60
2023-01-25T16:24:25.443Z,-0.77
2023-01-25T16:26:58.509Z,-0.76
2023-01-25T16:29:26.680Z,-0.71
2023-01-25T16:31:54.711Z,-0.72
2023-01-25T16:34:22.818Z,-0.88
2023-01-25T16:36:51.194Z,-0.81
2023-01-25T16:39:24.298Z,-1.01
2023-01-25T16:41:51.856Z,-1.12
2023-01-25T16:44:19.530Z,-1.03
2023-01-25T16:46:50.408Z,-0.98
2023-01-25T16:49:23.316Z,-1.02
2023-01-25T16:51:51.007Z,-1.10
2023-01-25T16:54:20.323Z,-1.10
2023-01-25T16:56:49.603Z,-1.31
2023-01-25T16:59:18.117Z,-1.26
2023-01-25T17:01:46.252Z,-1.22
2023-01-25T17:04:14.046Z,-1.05
2023-01-25T17:06:44.381Z,-1.01
2023-01-25T17:09:22.895Z,-0.95
2023-01-25T17:11:51.800Z,-0.88
2023-01-25T17:14:19.951Z,-0.77
2023-01-25T17:16:50.674Z,-0.86
2023-01-25T17:19:19.437Z,-0.89
2023-01-25T17:21:47.123Z,-0.91
2023-01-25T17:24:17.761Z,-0.93
2023-01-25T17:26:45.328Z,-1.12
2023-01-25T17:29:14.056Z,-1.21
2023-01-25T17:31:42.512Z,-1.29
2023-01-25T17:34:16.385Z,-1.30
2023-01-25T17:36:45.476Z,-1.14
2023-01-25T17:39:17.623Z,-1.07
2023-01-25T17:41:46.817Z,-1.04
2023-01-25T17:44:17.988Z,-1.35
2023-01-25T17:46:45.633Z,-1.41
2023-01-25T17:49:14.886Z,-1.55
2023-01-25T17:51:42.734Z,-1.52
2023-01-25T17:54:11.773Z,-1.73
2023-01-25T17:56:39.922Z,-1.54
2023-01-25T17:59:09.272Z,-1.41
2023-01-25T18:01:36.965Z,-1.40
2023-01-25T18:04:07.988Z,-1.47
2023-01-25T18:06:36.671Z,-1.59
2023-01-25T18:09:06.402Z,-1.70
2023-01-25T18:11:36.048Z,-1.71
2023-01-25T18:14:08.435Z,-1.69
2023-01-25T18:16:39.038Z,-1.64
2023-01-25T18:19:06.990Z,-1.79
2023-01-25T18:21:34.671Z,-1.75
2023-01-25T18:24:31.909Z,-1.77
2023-01-25T18:27:04.300Z,-1.82
2023-01-25T18:29:39.514Z,-1.78
2023-01-25T18:32:07.619Z,-2.07
2023-01-25T18:34:35.515Z,-2.12
2023-01-25T18:37:03.152Z,-2.39
2023-01-25T18:39:30.592Z,-2.43
2023-01-25T18:41:58.127Z,-2.59
2023-01-25T18:44:25.575Z,-2.20
2023-01-25T18:46:53.131Z,-2.05
2023-01-25T18:49:20.477Z,-1.97
2023-01-25T18:52:08.499Z,-1.97
2023-01-25T18:54:36.120Z,-2.11
2023-01-25T18:57:03.801Z,-2.05
2023-01-25T18:59:31.693Z,-2.20
2023-01-25T19:01:59.267Z,-2.23
2023-01-25T19:04:27.680Z,-2.26
2023-01-25T19:06:57.751Z,-2.20
2023-01-25T19:09:26.119Z,-2.15
2023-01-25T19:11:54.648Z,-2.14
2023-01-25T19:14:23.215Z,-2.35
2023-01-25T19:16:51.057Z,-2.33
2023-01-25T19:19:20.800Z,-2.58
2023-01-25T19:21:48.577Z,-2.67
2023-01-25T19:24:19.586Z,-2.68
2023-01-25T19:26:47.709Z,-2.59
2023-01-25T19:29:15.883Z,-2.72
2023-01-25T19:31:43.365Z,-2.79
2023-01-25T19:34:10.742Z,-2.88
2023-01-25T19:36:45.924Z,-2.94
2023-01-25T19:39:13.472Z,-2.78
2023-01-25T19:41:41.100Z,-2.88
2023-01-25T19:44:12.445Z,-2.95
2023-01-25T19:46:40.553Z,-2.98
2023-01-25T19:49:10.526Z,-2.87
2023-01-25T19:51:43.873Z,-2.91
2023-01-25T19:54:17.419Z,-2.97
2023-01-25T19:56:47.545Z,-2.98
2023-01-25T19:59:20.678Z,-3.04
2023-01-25T20:01:48.710Z,-3.19
2023-01-25T20:04:20.023Z,-3.31
2023-01-25T20:06:48.753Z,-3.46
2023-01-25T20:09:17.644Z,-3.19
2023-01-25T20:11:47.199Z,-3.18
2023-01-25T20:14:14.719Z,-3.29
2023-01-25T20:16:42.295Z,-3.35
2023-01-25T20:19:12.373Z,-3.40
2023-01-25T20:21:40.464Z,-3.44
2023-01-25T20:24:10.104Z,-3.32
2023-01-25T20:26:39.521Z,-3.26
2023-01-25T20:29:08.265Z,-2.98
2023-01-25T20:31:36.956Z,-3.06
2023-01-25T20:34:16.772Z,-3.40
2023-01-25T20:36:45.825Z,-3.33
2023-01-25T20:39:20.239Z,-3.45
2023-01-25T20:41:48.468Z,-3.83
2023-01-25T20:44:18.215Z,-3.98
2023-01-25T20:46:46.002Z,-3.82
2023-01-25T20:49:18.266Z,-3.79
2023-01-25T20:51:47.001Z,-3.68
2023-01-25T20:54:16.496Z,-4.06
2023-01-25T20:56:48.187Z,-3.74
2023-01-25T20:59:17.901Z,-3.86
2023-01-25T21:01:45.844Z,-3.70
2023-01-25T21:04:13.361Z,-3.73
2023-01-25T21:06:40.838Z,-3.56
2023-01-25T21:09:08.265Z,-3.57
2023-01-25T21:11:35.789Z,-3.39
2023-01-25T21:14:03.573Z,-3.72
2023-01-25T21:16:31.307Z,-3.83
2023-01-25T21:19:00.447Z,-3.99
2023-01-25T21:21:29.980Z,-3.81
2023-01-25T21:24:00.275Z,-3.67
2023-01-25T21:26:31.377Z,-3.79
2023-01-25T21:29:00.717Z,-3.88
2023-01-25T21:31:37.734Z,-3.85
2023-01-25T21:34:06.637Z,-4.20
2023-01-25T21:36:34.412Z,-4.06
2023-01-25T21:39:02.040Z,-4.27
2023-01-25T21:41:31.383Z,-4.16
2023-01-25T21:44:18.566Z,-4.25
2023-01-25T21:47:12.440Z,-4.21
2023-01-25T21:49:53.272Z,-4.29
2023-01-25T21:52:21.468Z,-4.34
2023-01-25T21:54:48.869Z,-4.31
2023-01-25T21:57:16.227Z,-4.49
2023-01-25T21:59:43.836Z,-4.52
2023-01-25T22:02:14.727Z,-4.59
2023-01-25T22:04:42.481Z,-4.69
2023-01-25T22:07:10.556Z,-4.75
2023-01-25T22:09:38.095Z,-4.75
2023-01-25T22:12:05.524Z,-4.62
2023-01-25T22:14:33.084Z,-4.59
2023-01-25T22:17:00.411Z,-4.49
2023-01-25T22:19:28.051Z,-4.52
2023-01-25T22:21:55.517Z,-4.35
2023-01-25T22:24:23.056Z,-4.47
2023-01-25T22:27:09.302Z,-4.38
2023-01-25T22:29:37.638Z,-4.53
2023-01-25T22:32:05.755Z,-4.40
2023-01-25T22:34:33.259Z,-4.34
2023-01-25T22:37:00.580Z,-4.22
2023-01-25T22:39:28.199Z,-4.17
2023-01-25T22:41:56.773Z,-4.42
2023-01-25T22:44:24.162Z,-4.81
2023-01-25T22:46:53.085Z,-4.83
2023-01-25T22:49:20.668Z,-4.68
2023-01-25T22:51:55.640Z,-4.94
2023-01-25T22:54:23.706Z,-4.86
2023-01-25T22:56:51.034Z,-4.79
2023-01-25T22:59:19.507Z,-4.70
2023-01-25T23:01:47.011Z,-4.64
2023-01-25T23:04:14.549Z,-4.55
2023-01-25T23:06:42.083Z,-4.61
2023-01-25T23:09:10.879Z,-4.69
2023-01-25T23:11:38.724Z,-4.60
2023-01-25T23:14:30.959Z,-4.63
2023-01-25T23:17:18.363Z,-4.64
2023-01-25T23:19:45.899Z,-4.64
2023-01-25T23:22:13.550Z,-4.51
2023-01-25T23:24:41.015Z,-4.56
2023-01-25T23:27:08.512Z,-4.82
2023-01-25T23:29:37.411Z,-4.88
2023-01-25T23:32:04.989Z,-4.90
2023-01-25T23:34:35.169Z,-5.08
2023-01-25T23:37:02.525Z,-5.04
2023-01-25T23:39:30.114Z,-5.02
2023-01-25T23:41:57.548Z,-5.02
2023-01-25T23:44:25.028Z,-5.15
2023-01-25T23:46:52.364Z,-5.14
2023-01-25T23:49:19.999Z,-5.04
2023-01-25T23:51:47.366Z,-4.97
2023-01-25T23:54:14.919Z,-5.11
2023-01-25T23:56:42.444Z,-5.38
2023-01-25T23:59:10.060Z,-5.24
